sensor_id;sensor_type;location;lat;lon;timestamp;P1;durP1;ratioP1;P2;durP2;ratioP2
40537;SDS011;27925;41.874;12.526;2024-03-23T00:52:50;10.60;;;8.20;;
40537;SDS011;27925;41.874;12.526;2024-03-23T00:55:16;15.40;;;8.82;;
40537;SDS011;27925;41.874;12.526;2024-03-23T00:57:42;14.68;;;8.48;;
40537;SDS011;27925;41.874;12.526;2024-03-23T01:00:07;13.82;;;9.02;;
40537;SDS011;27925;41.874;12.526;2024-03-23T01:02:35;14.02;;;8.95;;
40537;SDS011;27925;41.874;12.526;2024-03-23T01:05:01;18.25;;;9.90;;
40537;SDS011;27925;41.874;12.526;2024-03-23T01:07:27;15.90;;;10.00;;
40537;SDS011;27925;41.874;12.526;2024-03-23T01:09:53;17.25;;;9.93;;
40537;SDS011;27925;41.874;12.526;2024-03-23T01:12:19;15.52;;;9.90;;
40537;SDS011;27925;41.874;12.526;2024-03-23T01:14:44;14.45;;;9.57;;
40537;SDS011;27925;41.874;12.526;2024-03-23T01:17:10;20.85;;;10.27;;
40537;SDS011;27925;41.874;12.526;2024-03-23T01:19:36;18.52;;;11.70;;
40537;SDS011;27925;41.874;12.526;2024-03-23T01:22:01;17.15;;;11.20;;
40537;SDS011;27925;41.874;12.526;2024-03-23T01:24:27;16.45;;;10.98;;
40537;SDS011;27925;41.874;12.526;2024-03-23T01:26:53;17.67;;;11.82;;
40537;SDS011;27925;41.874;12.526;2024-03-23T01:29:18;15.77;;;10.73;;
40537;SDS011;27925;41.874;12.526;2024-03-23T01:31:44;17.88;;;10.15;;
40537;SDS011;27925;41.874;12.526;2024-03-23T01:34:10;17.52;;;11.65;;
40537;SDS011;27925;41.874;12.526;2024-03-23T01:36:36;20.58;;;11.15;;
40537;SDS011;27925;41.874;12.526;2024-03-23T01:39:02;16.88;;;11.80;;
40537;SDS011;27925;41.874;12.526;2024-03-23T01:41:27;21.25;;;12.23;;
40537;SDS011;27925;41.874;12.526;2024-03-23T01:43:54;20.67;;;13.23;;
40537;SDS011;27925;41.874;12.526;2024-03-23T01:46:21;26.00;;;12.60;;
40537;SDS011;27925;41.874;12.526;2024-03-23T01:48:47;19.13;;;13.18;;
40537;SDS011;27925;41.874;12.526;2024-03-23T01:51:14;23.13;;;13.40;;
40537;SDS011;27925;41.874;12.526;2024-03-23T01:53:40;18.27;;;13.05;;
40537;SDS011;27925;41.874;12.526;2024-03-23T01:56:06;24.60;;;14.10;;
40537;SDS011;27925;41.874;12.526;2024-03-23T01:58:32;18.98;;;13.15;;
40537;SDS011;27925;41.874;12.526;2024-03-23T02:00:58;19.65;;;13.05;;
40537;SDS011;27925;41.874;12.526;2024-03-23T02:03:24;22.45;;;14.02;;
40537;SDS011;27925;41.874;12.526;2024-03-23T02:05:51;21.42;;;14.18;;
40537;SDS011;27925;41.874;12.526;2024-03-23T02:08:18;24.38;;;14.40;;
40537;SDS011;27925;41.874;12.526;2024-03-23T02:10:46;23.02;;;14.82;;
40537;SDS011;27925;41.874;12.526;2024-03-23T02:13:13;25.42;;;14.15;;
40537;SDS011;27925;41.874;12.526;2024-03-23T02:15:39;20.05;;;14.25;;
40537;SDS011;27925;41.874;12.526;2024-03-23T02:18:06;20.67;;;15.02;;
40537;SDS011;27925;41.874;12.526;2024-03-23T02:20:33;22.00;;;14.30;;
40537;SDS011;27925;41.874;12.526;2024-03-23T02:23:00;24.83;;;14.90;;
40537;SDS011;27925;41.874;12.526;2024-03-23T02:25:25;21.25;;;14.45;;
40537;SDS011;27925;41.874;12.526;2024-03-23T02:27:51;21.88;;;14.52;;
40537;SDS011;27925;41.874;12.526;2024-03-23T02:30:19;20.67;;;14.15;;
40537;SDS011;27925;41.874;12.526;2024-03-23T02:32:45;25.15;;;14.32;;
40537;SDS011;27925;41.874;12.526;2024-03-23T02:35:11;22.45;;;14.75;;
40537;SDS011;27925;41.874;12.526;2024-03-23T02:37:36;23.25;;;14.68;;
40537;SDS011;27925;41.874;12.526;2024-03-23T02:40:02;22.42;;;14.48;;
40537;SDS011;27925;41.874;12.526;2024-03-23T02:42:28;24.85;;;15.35;;
40537;SDS011;27925;41.874;12.526;2024-03-23T02:44:54;20.40;;;15.55;;
40537;SDS011;27925;41.874;12.526;2024-03-23T02:47:20;21.38;;;15.20;;
40537;SDS011;27925;41.874;12.526;2024-03-23T02:49:45;21.92;;;15.10;;
40537;SDS011;27925;41.874;12.526;2024-03-23T02:52:11;20.35;;;14.48;;
40537;SDS011;27925;41.874;12.526;2024-03-23T02:54:37;20.73;;;15.00;;
40537;SDS011;27925;41.874;12.526;2024-03-23T02:57:02;22.50;;;15.00;;
40537;SDS011;27925;41.874;12.526;2024-03-23T02:59:28;19.90;;;14.05;;
40537;SDS011;27925;41.874;12.526;2024-03-23T03:01:54;20.65;;;15.10;;
40537;SDS011;27925;41.874;12.526;2024-03-23T03:04:19;25.05;;;16.20;;
40537;SDS011;27925;41.874;12.526;2024-03-23T03:06:48;22.30;;;14.80;;
40537;SDS011;27925;41.874;12.526;2024-03-23T03:09:14;22.58;;;16.40;;
40537;SDS011;27925;41.874;12.526;2024-03-23T03:11:40;24.08;;;15.73;;
40537;SDS011;27925;41.874;12.526;2024-03-23T03:14:06;22.23;;;15.25;;
40537;SDS011;27925;41.874;12.526;2024-03-23T03:16:33;19.42;;;14.32;;
40537;SDS011;27925;41.874;12.526;2024-03-23T03:18:58;21.75;;;14.25;;
40537;SDS011;27925;41.874;12.526;2024-03-23T03:21:24;21.60;;;14.30;;
40537;SDS011;27925;41.874;12.526;2024-03-23T03:23:50;20.80;;;14.15;;
40537;SDS011;27925;41.874;12.526;2024-03-23T03:26:18;21.70;;;13.98;;
40537;SDS011;27925;41.874;12.526;2024-03-23T03:28:44;19.13;;;13.82;;
40537;SDS011;27925;41.874;12.526;2024-03-23T03:31:14;19.38;;;14.13;;
40537;SDS011;27925;41.874;12.526;2024-03-23T03:33:40;21.98;;;13.88;;
40537;SDS011;27925;41.874;12.526;2024-03-23T03:36:06;22.52;;;14.65;;
40537;SDS011;27925;41.874;12.526;2024-03-23T03:38:31;20.85;;;14.63;;
40537;SDS011;27925;41.874;12.526;2024-03-23T03:40:57;20.48;;;15.32;;
40537;SDS011;27925;41.874;12.526;2024-03-23T03:43:24;23.65;;;15.95;;
40537;SDS011;27925;41.874;12.526;2024-03-23T03:45:56;20.90;;;14.48;;
40537;SDS011;27925;41.874;12.526;2024-03-23T03:48:23;19.40;;;14.73;;
40537;SDS011;27925;41.874;12.526;2024-03-23T03:50:48;22.80;;;15.45;;
40537;SDS011;27925;41.874;12.526;2024-03-23T03:53:14;25.10;;;15.02;;
40537;SDS011;27925;41.874;12.526;2024-03-23T03:55:40;20.60;;;13.40;;
40537;SDS011;27925;41.874;12.526;2024-03-23T03:58:05;21.95;;;15.00;;
40537;SDS011;27925;41.874;12.526;2024-03-23T04:00:31;26.60;;;17.17;;
40537;SDS011;27925;41.874;12.526;2024-03-23T04:02:57;23.77;;;15.82;;
40537;SDS011;27925;41.874;12.526;2024-03-23T04:05:23;25.13;;;15.30;;
40537;SDS011;27925;41.874;12.526;2024-03-23T04:07:49;22.25;;;14.35;;
40537;SDS011;27925;41.874;12.526;2024-03-23T04:10:14;20.40;;;13.32;;
40537;SDS011;27925;41.874;12.526;2024-03-23T04:12:43;18.35;;;12.73;;
40537;SDS011;27925;41.874;12.526;2024-03-23T04:15:09;19.33;;;13.95;;
40537;SDS011;27925;41.874;12.526;2024-03-23T04:17:35;18.35;;;14.38;;
40537;SDS011;27925;41.874;12.526;2024-03-23T04:20:01;17.85;;;13.07;;
40537;SDS011;27925;41.874;12.526;2024-03-23T04:22:28;21.52;;;13.70;;
40537;SDS011;27925;41.874;12.526;2024-03-23T04:24:57;19.80;;;13.90;;
40537;SDS011;27925;41.874;12.526;2024-03-23T04:27:23;17.88;;;13.48;;
40537;SDS011;27925;41.874;12.526;2024-03-23T04:29:49;19.90;;;13.43;;
40537;SDS011;27925;41.874;12.526;2024-03-23T04:32:16;18.08;;;12.95;;
40537;SDS011;27925;41.874;12.526;2024-03-23T04:34:43;17.65;;;12.93;;
40537;SDS011;27925;41.874;12.526;2024-03-23T04:37:09;20.70;;;13.63;;
40537;SDS011;27925;41.874;12.526;2024-03-23T04:39:35;16.70;;;13.25;;
40537;SDS011;27925;41.874;12.526;2024-03-23T04:42:01;17.42;;;13.23;;
40537;SDS011;27925;41.874;12.526;2024-03-23T04:44:28;21.65;;;13.77;;
40537;SDS011;27925;41.874;12.526;2024-03-23T04:46:54;20.00;;;13.80;;
40537;SDS011;27925;41.874;12.526;2024-03-23T04:49:19;17.67;;;13.43;;
40537;SDS011;27925;41.874;12.526;2024-03-23T04:51:45;19.35;;;13.43;;
40537;SDS011;27925;41.874;12.526;2024-03-23T04:54:11;19.55;;;13.35;;
40537;SDS011;27925;41.874;12.526;2024-03-23T04:56:37;20.27;;;13.90;;
40537;SDS011;27925;41.874;12.526;2024-03-23T04:59:03;19.10;;;13.27;;
40537;SDS011;27925;41.874;12.526;2024-03-23T05:01:30;20.52;;;12.95;;
40537;SDS011;27925;41.874;12.526;2024-03-23T05:03:56;21.33;;;13.20;;
40537;SDS011;27925;41.874;12.526;2024-03-23T05:06:23;19.13;;;13.05;;
40537;SDS011;27925;41.874;12.526;2024-03-23T05:08:51;19.23;;;13.70;;
40537;SDS011;27925;41.874;12.526;2024-03-23T05:11:17;18.95;;;13.38;;
40537;SDS011;27925;41.874;12.526;2024-03-23T05:13:43;20.10;;;14.13;;
40537;SDS011;27925;41.874;12.526;2024-03-23T05:16:10;18.58;;;13.15;;
40537;SDS011;27925;41.874;12.526;2024-03-23T05:18:36;20.40;;;14.25;;
40537;SDS011;27925;41.874;12.526;2024-03-23T05:21:01;20.08;;;13.32;;
40537;SDS011;27925;41.874;12.526;2024-03-23T05:23:30;17.77;;;13.75;;
40537;SDS011;27925;41.874;12.526;2024-03-23T05:25:56;22.13;;;13.88;;
40537;SDS011;27925;41.874;12.526;2024-03-23T05:28:22;23.63;;;14.05;;
40537;SDS011;27925;41.874;12.526;2024-03-23T05:30:51;20.58;;;13.90;;
40537;SDS011;27925;41.874;12.526;2024-03-23T05:33:21;18.35;;;12.85;;
40537;SDS011;27925;41.874;12.526;2024-03-23T05:35:49;19.83;;;13.13;;
40537;SDS011;27925;41.874;12.526;2024-03-23T05:38:25;17.15;;;12.20;;
40537;SDS011;27925;41.874;12.526;2024-03-23T05:40:55;19.00;;;12.48;;
40537;SDS011;27925;41.874;12.526;2024-03-23T05:43:21;21.17;;;13.05;;
40537;SDS011;27925;41.874;12.526;2024-03-23T05:45:56;18.48;;;13.52;;
40537;SDS011;27925;41.874;12.526;2024-03-23T05:48:23;22.27;;;13.95;;
40537;SDS011;27925;41.874;12.526;2024-03-23T05:50:50;21.55;;;14.00;;
40537;SDS011;27925;41.874;12.526;2024-03-23T05:53:16;19.90;;;12.15;;
40537;SDS011;27925;41.874;12.526;2024-03-23T05:55:43;20.58;;;13.18;;
40537;SDS011;27925;41.874;12.526;2024-03-23T05:58:09;17.38;;;12.05;;
40537;SDS011;27925;41.874;12.526;2024-03-23T06:00:35;17.52;;;12.27;;
40537;SDS011;27925;41.874;12.526;2024-03-23T06:03:01;19.83;;;12.98;;
40537;SDS011;27925;41.874;12.526;2024-03-23T06:05:26;22.33;;;14.10;;
40537;SDS011;27925;41.874;12.526;2024-03-23T06:07:52;23.45;;;14.27;;
40537;SDS011;27925;41.874;12.526;2024-03-23T06:10:18;19.13;;;12.98;;
40537;SDS011;27925;41.874;12.526;2024-03-23T06:12:45;15.60;;;12.65;;
40537;SDS011;27925;41.874;12.526;2024-03-23T06:15:11;18.63;;;12.85;;
40537;SDS011;27925;41.874;12.526;2024-03-23T06:17:37;21.40;;;12.60;;
40537;SDS011;27925;41.874;12.526;2024-03-23T06:20:03;20.90;;;12.45;;
40537;SDS011;27925;41.874;12.526;2024-03-23T06:22:33;18.25;;;12.57;;
40537;SDS011;27925;41.874;12.526;2024-03-23T06:24:59;21.20;;;13.13;;
40537;SDS011;27925;41.874;12.526;2024-03-23T06:27:24;16.55;;;12.52;;
40537;SDS011;27925;41.874;12.526;2024-03-23T06:29:50;20.65;;;14.52;;
40537;SDS011;27925;41.874;12.526;2024-03-23T06:32:16;18.58;;;13.88;;
40537;SDS011;27925;41.874;12.526;2024-03-23T06:34:42;20.35;;;13.63;;
40537;SDS011;27925;41.874;12.526;2024-03-23T06:37:08;17.33;;;12.88;;
40537;SDS011;27925;41.874;12.526;2024-03-23T06:39:35;19.33;;;13.20;;
40537;SDS011;27925;41.874;12.526;2024-03-23T06:42:01;19.38;;;13.23;;
40537;SDS011;27925;41.874;12.526;2024-03-23T06:44:28;17.77;;;13.35;;
40537;SDS011;27925;41.874;12.526;2024-03-23T06:46:54;20.67;;;13.90;;
40537;SDS011;27925;41.874;12.526;2024-03-23T06:49:20;18.35;;;13.48;;
40537;SDS011;27925;41.874;12.526;2024-03-23T06:51:46;20.30;;;14.32;;
40537;SDS011;27925;41.874;12.526;2024-03-23T06:54:11;19.02;;;14.52;;
40537;SDS011;27925;41.874;12.526;2024-03-23T06:56:37;20.35;;;15.68;;
40537;SDS011;27925;41.874;12.526;2024-03-23T06:59:03;20.42;;;15.02;;
40537;SDS011;27925;41.874;12.526;2024-03-23T07:01:29;19.52;;;15.48;;
40537;SDS011;27925;41.874;12.526;2024-03-23T07:03:54;22.60;;;14.35;;
40537;SDS011;27925;41.874;12.526;2024-03-23T07:06:20;20.67;;;14.80;;
40537;SDS011;27925;41.874;12.526;2024-03-23T07:08:46;22.52;;;16.15;;
40537;SDS011;27925;41.874;12.526;2024-03-23T07:11:12;20.63;;;14.75;;
40537;SDS011;27925;41.874;12.526;2024-03-23T07:13:43;19.38;;;13.77;;
40537;SDS011;27925;41.874;12.526;2024-03-23T07:16:09;21.00;;;15.55;;
40537;SDS011;27925;41.874;12.526;2024-03-23T07:18:34;19.48;;;13.93;;
40537;SDS011;27925;41.874;12.526;2024-03-23T07:21:00;22.20;;;14.40;;
40537;SDS011;27925;41.874;12.526;2024-03-23T07:23:25;21.52;;;14.35;;
40537;SDS011;27925;41.874;12.526;2024-03-23T07:26:04;22.52;;;14.50;;
40537;SDS011;27925;41.874;12.526;2024-03-23T07:28:33;19.33;;;14.65;;
40537;SDS011;27925;41.874;12.526;2024-03-23T07:31:07;23.65;;;14.45;;
40537;SDS011;27925;41.874;12.526;2024-03-23T07:33:35;18.25;;;14.30;;
40537;SDS011;27925;41.874;12.526;2024-03-23T07:36:01;25.38;;;16.88;;
40537;SDS011;27925;41.874;12.526;2024-03-23T07:38:28;21.20;;;14.73;;
40537;SDS011;27925;41.874;12.526;2024-03-23T07:43:29;20.85;;;16.20;;
40537;SDS011;27925;41.874;12.526;2024-03-23T07:45:55;20.42;;;14.73;;
40537;SDS011;27925;41.874;12.526;2024-03-23T07:48:21;22.05;;;15.45;;
40537;SDS011;27925;41.874;12.526;2024-03-23T07:50:56;20.73;;;14.88;;
40537;SDS011;27925;41.874;12.526;2024-03-23T07:53:23;21.67;;;15.18;;
40537;SDS011;27925;41.874;12.526;2024-03-23T07:55:53;23.98;;;15.15;;
40537;SDS011;27925;41.874;12.526;2024-03-23T07:58:23;22.45;;;15.25;;
40537;SDS011;27925;41.874;12.526;2024-03-23T08:00:49;19.48;;;15.60;;
40537;SDS011;27925;41.874;12.526;2024-03-23T08:03:15;23.45;;;15.88;;
40537;SDS011;27925;41.874;12.526;2024-03-23T08:05:41;18.50;;;13.70;;
40537;SDS011;27925;41.874;12.526;2024-03-23T08:08:06;16.88;;;13.15;;
40537;SDS011;27925;41.874;12.526;2024-03-23T08:10:32;19.17;;;14.00;;
40537;SDS011;27925;41.874;12.526;2024-03-23T08:12:58;16.73;;;13.52;;
40537;SDS011;27925;41.874;12.526;2024-03-23T08:15:23;19.23;;;15.00;;
40537;SDS011;27925;41.874;12.526;2024-03-23T08:17:49;18.83;;;15.48;;
40537;SDS011;27925;41.874;12.526;2024-03-23T08:20:15;21.85;;;17.38;;
40537;SDS011;27925;41.874;12.526;2024-03-23T08:22:41;22.88;;;16.73;;
40537;SDS011;27925;41.874;12.526;2024-03-23T08:25:07;18.05;;;15.25;;
40537;SDS011;27925;41.874;12.526;2024-03-23T08:27:32;19.55;;;14.95;;
40537;SDS011;27925;41.874;12.526;2024-03-23T08:29:58;18.23;;;15.38;;
40537;SDS011;27925;41.874;12.526;2024-03-23T08:32:24;20.52;;;15.25;;
40537;SDS011;27925;41.874;12.526;2024-03-23T08:34:49;18.60;;;14.48;;
40537;SDS011;27925;41.874;12.526;2024-03-23T08:37:15;15.57;;;11.90;;
40537;SDS011;27925;41.874;12.526;2024-03-23T08:39:42;14.00;;;10.38;;
40537;SDS011;27925;41.874;12.526;2024-03-23T08:42:08;12.18;;;9.93;;
40537;SDS011;27925;41.874;12.526;2024-03-23T08:44:34;12.57;;;10.05;;
40537;SDS011;27925;41.874;12.526;2024-03-23T08:47:00;14.63;;;10.50;;
40537;SDS011;27925;41.874;12.526;2024-03-23T08:49:26;12.05;;;9.35;;
40537;SDS011;27925;41.874;12.526;2024-03-23T08:51:52;13.63;;;10.25;;
40537;SDS011;27925;41.874;12.526;2024-03-23T08:54:19;14.82;;;9.82;;
40537;SDS011;27925;41.874;12.526;2024-03-23T08:56:45;15.57;;;10.88;;
40537;SDS011;27925;41.874;12.526;2024-03-23T08:59:11;17.48;;;11.70;;
40537;SDS011;27925;41.874;12.526;2024-03-23T09:01:37;12.68;;;8.65;;
40537;SDS011;27925;41.874;12.526;2024-03-23T09:04:03;14.10;;;8.10;;
40537;SDS011;27925;41.874;12.526;2024-03-23T09:06:29;11.27;;;8.27;;
40537;SDS011;27925;41.874;12.526;2024-03-23T09:08:55;11.85;;;7.93;;
40537;SDS011;27925;41.874;12.526;2024-03-23T09:11:20;13.57;;;8.88;;
40537;SDS011;27925;41.874;12.526;2024-03-23T09:13:46;13.48;;;9.10;;
40537;SDS011;27925;41.874;12.526;2024-03-23T09:16:12;13.73;;;10.48;;
40537;SDS011;27925;41.874;12.526;2024-03-23T09:18:38;11.95;;;9.25;;
40537;SDS011;27925;41.874;12.526;2024-03-23T09:21:04;11.63;;;7.93;;
40537;SDS011;27925;41.874;12.526;2024-03-23T09:23:36;10.65;;;7.15;;
40537;SDS011;27925;41.874;12.526;2024-03-23T09:26:03;10.07;;;7.32;;
40537;SDS011;27925;41.874;12.526;2024-03-23T09:28:29;10.98;;;7.80;;
40537;SDS011;27925;41.874;12.526;2024-03-23T09:30:55;10.60;;;7.75;;
40537;SDS011;27925;41.874;12.526;2024-03-23T09:33:27;15.80;;;10.30;;
40537;SDS011;27925;41.874;12.526;2024-03-23T09:35:54;9.27;;;6.78;;
40537;SDS011;27925;41.874;12.526;2024-03-23T09:38:21;9.52;;;6.30;;
40537;SDS011;27925;41.874;12.526;2024-03-23T09:40:48;12.50;;;6.80;;
40537;SDS011;27925;41.874;12.526;2024-03-23T09:43:18;9.07;;;5.88;;
40537;SDS011;27925;41.874;12.526;2024-03-23T09:45:44;9.63;;;5.60;;
40537;SDS011;27925;41.874;12.526;2024-03-23T09:48:10;11.05;;;6.07;;
40537;SDS011;27925;41.874;12.526;2024-03-23T09:50:37;11.82;;;6.80;;
40537;SDS011;27925;41.874;12.526;2024-03-23T09:53:06;11.50;;;6.70;;
40537;SDS011;27925;41.874;12.526;2024-03-23T09:55:33;8.52;;;4.40;;
40537;SDS011;27925;41.874;12.526;2024-03-23T09:58:00;7.03;;;4.07;;
40537;SDS011;27925;41.874;12.526;2024-03-23T10:00:27;7.35;;;4.13;;
40537;SDS011;27925;41.874;12.526;2024-03-23T10:02:55;13.05;;;4.03;;
40537;SDS011;27925;41.874;12.526;2024-03-23T10:05:21;5.63;;;3.50;;
40537;SDS011;27925;41.874;12.526;2024-03-23T10:07:48;7.88;;;4.07;;
40537;SDS011;27925;41.874;12.526;2024-03-23T10:10:15;8.32;;;3.75;;
40537;SDS011;27925;41.874;12.526;2024-03-23T10:12:48;9.05;;;3.80;;
40537;SDS011;27925;41.874;12.526;2024-03-23T10:15:18;9.75;;;3.60;;
40537;SDS011;27925;41.874;12.526;2024-03-23T10:17:47;8.13;;;3.20;;
40537;SDS011;27925;41.874;12.526;2024-03-23T10:20:13;9.63;;;4.35;;
40537;SDS011;27925;41.874;12.526;2024-03-23T10:22:43;7.90;;;3.30;;
40537;SDS011;27925;41.874;12.526;2024-03-23T10:25:10;7.57;;;3.60;;
40537;SDS011;27925;41.874;12.526;2024-03-23T10:27:36;5.88;;;2.88;;
40537;SDS011;27925;41.874;12.526;2024-03-23T10:30:11;6.13;;;2.50;;
40537;SDS011;27925;41.874;12.526;2024-03-23T10:32:40;6.75;;;3.20;;
40537;SDS011;27925;41.874;12.526;2024-03-23T10:35:21;6.03;;;2.70;;
40537;SDS011;27925;41.874;12.526;2024-03-23T10:37:47;6.65;;;2.40;;
40537;SDS011;27925;41.874;12.526;2024-03-23T10:40:16;6.32;;;2.90;;
40537;SDS011;27925;41.874;12.526;2024-03-23T10:42:43;5.28;;;3.05;;
40537;SDS011;27925;41.874;12.526;2024-03-23T10:45:09;5.43;;;2.70;;
40537;SDS011;27925;41.874;12.526;2024-03-23T10:47:36;6.55;;;3.10;;
40537;SDS011;27925;41.874;12.526;2024-03-23T10:50:05;7.53;;;3.17;;
40537;SDS011;27925;41.874;12.526;2024-03-23T10:52:34;5.10;;;2.80;;
40537;SDS011;27925;41.874;12.526;2024-03-23T10:55:02;4.82;;;2.30;;
40537;SDS011;27925;41.874;12.526;2024-03-23T10:57:34;7.30;;;2.00;;
40537;SDS011;27925;41.874;12.526;2024-03-23T11:00:08;4.70;;;2.08;;
40537;SDS011;27925;41.874;12.526;2024-03-23T11:02:35;6.32;;;1.90;;
40537;SDS011;27925;41.874;12.526;2024-03-23T11:05:01;6.25;;;2.38;;
40537;SDS011;27925;41.874;12.526;2024-03-23T11:09:53;5.38;;;2.10;;
40537;SDS011;27925;41.874;12.526;2024-03-23T11:14:48;4.30;;;1.75;;
40537;SDS011;27925;41.874;12.526;2024-03-23T11:17:18;5.22;;;1.38;;
40537;SDS011;27925;41.874;12.526;2024-03-23T11:19:50;4.57;;;1.90;;
40537;SDS011;27925;41.874;12.526;2024-03-23T11:25:24;4.95;;;1.95;;
40537;SDS011;27925;41.874;12.526;2024-03-23T11:27:54;3.60;;;1.40;;
40537;SDS011;27925;41.874;12.526;2024-03-23T11:32:52;3.80;;;1.50;;
40537;SDS011;27925;41.874;12.526;2024-03-23T11:35:25;4.47;;;1.58;;
40537;SDS011;27925;41.874;12.526;2024-03-23T11:40:39;4.10;;;1.80;;
40537;SDS011;27925;41.874;12.526;2024-03-23T11:43:12;4.47;;;1.40;;
40537;SDS011;27925;41.874;12.526;2024-03-23T11:45:48;5.47;;;2.00;;
40537;SDS011;27925;41.874;12.526;2024-03-23T11:48:19;5.85;;;1.50;;
40537;SDS011;27925;41.874;12.526;2024-03-23T11:50:47;2.53;;;1.30;;
40537;SDS011;27925;41.874;12.526;2024-03-23T11:53:17;2.63;;;1.20;;
40537;SDS011;27925;41.874;12.526;2024-03-23T11:58:15;3.50;;;1.42;;
40537;SDS011;27925;41.874;12.526;2024-03-23T12:00:43;4.68;;;1.40;;
40537;SDS011;27925;41.874;12.526;2024-03-23T12:03:24;6.00;;;2.00;;
40537;SDS011;27925;41.874;12.526;2024-03-23T12:05:53;3.50;;;1.20;;
40537;SDS011;27925;41.874;12.526;2024-03-23T12:08:24;2.97;;;1.40;;
40537;SDS011;27925;41.874;12.526;2024-03-23T12:11:13;4.55;;;1.65;;
40537;SDS011;27925;41.874;12.526;2024-03-23T12:13:40;3.15;;;1.45;;
40537;SDS011;27925;41.874;12.526;2024-03-23T12:16:11;4.90;;;1.40;;
40537;SDS011;27925;41.874;12.526;2024-03-23T12:18:39;4.10;;;1.48;;
40537;SDS011;27925;41.874;12.526;2024-03-23T12:21:06;6.57;;;1.40;;
40537;SDS011;27925;41.874;12.526;2024-03-23T12:23:32;2.95;;;1.50;;
40537;SDS011;27925;41.874;12.526;2024-03-23T12:25:58;4.80;;;1.30;;
40537;SDS011;27925;41.874;12.526;2024-03-23T12:28:24;2.65;;;1.05;;
40537;SDS011;27925;41.874;12.526;2024-03-23T12:30:50;3.42;;;1.40;;
40537;SDS011;27925;41.874;12.526;2024-03-23T12:33:20;2.85;;;1.50;;
40537;SDS011;27925;41.874;12.526;2024-03-23T12:35:46;4.47;;;1.70;;
40537;SDS011;27925;41.874;12.526;2024-03-23T12:38:15;3.03;;;1.73;;
40537;SDS011;27925;41.874;12.526;2024-03-23T12:40:42;3.88;;;1.80;;
40537;SDS011;27925;41.874;12.526;2024-03-23T12:43:12;4.03;;;1.83;;
40537;SDS011;27925;41.874;12.526;2024-03-23T12:45:38;5.03;;;2.08;;
40537;SDS011;27925;41.874;12.526;2024-03-23T12:48:04;8.82;;;4.13;;
40537;SDS011;27925;41.874;12.526;2024-03-23T12:50:29;8.20;;;2.47;;
40537;SDS011;27925;41.874;12.526;2024-03-23T12:52:55;6.82;;;2.10;;
40537;SDS011;27925;41.874;12.526;2024-03-23T12:55:21;6.20;;;2.20;;
40537;SDS011;27925;41.874;12.526;2024-03-23T12:57:46;4.78;;;1.98;;
40537;SDS011;27925;41.874;12.526;2024-03-23T13:00:12;5.72;;;2.20;;
40537;SDS011;27925;41.874;12.526;2024-03-23T13:02:40;4.28;;;1.83;;
40537;SDS011;27925;41.874;12.526;2024-03-23T13:05:06;6.28;;;1.73;;
40537;SDS011;27925;41.874;12.526;2024-03-23T13:07:33;2.60;;;1.60;;
40537;SDS011;27925;41.874;12.526;2024-03-23T13:10:00;4.50;;;1.60;;
40537;SDS011;27925;41.874;12.526;2024-03-23T13:12:27;4.13;;;2.08;;
40537;SDS011;27925;41.874;12.526;2024-03-23T13:14:53;4.35;;;1.85;;
40537;SDS011;27925;41.874;12.526;2024-03-23T13:17:18;5.05;;;1.80;;
40537;SDS011;27925;41.874;12.526;2024-03-23T13:19:44;5.80;;;1.73;;
40537;SDS011;27925;41.874;12.526;2024-03-23T13:22:09;4.95;;;1.70;;
40537;SDS011;27925;41.874;12.526;2024-03-23T13:24:36;3.97;;;2.03;;
40537;SDS011;27925;41.874;12.526;2024-03-23T13:27:02;6.47;;;2.60;;
40537;SDS011;27925;41.874;12.526;2024-03-23T13:29:30;7.35;;;2.70;;
40537;SDS011;27925;41.874;12.526;2024-03-23T13:31:56;4.20;;;1.70;;
40537;SDS011;27925;41.874;12.526;2024-03-23T13:34:21;2.85;;;1.50;;
40537;SDS011;27925;41.874;12.526;2024-03-23T13:36:47;5.85;;;1.60;;
40537;SDS011;27925;41.874;12.526;2024-03-23T13:39:14;4.60;;;1.77;;
40537;SDS011;27925;41.874;12.526;2024-03-23T13:41:40;4.30;;;1.80;;
40537;SDS011;27925;41.874;12.526;2024-03-23T13:44:08;4.32;;;2.00;;
40537;SDS011;27925;41.874;12.526;2024-03-23T13:46:37;6.80;;;2.10;;
40537;SDS011;27925;41.874;12.526;2024-03-23T13:49:03;6.82;;;2.40;;
40537;SDS011;27925;41.874;12.526;2024-03-23T13:51:32;5.95;;;2.28;;
40537;SDS011;27925;41.874;12.526;2024-03-23T13:53:58;6.55;;;2.08;;
40537;SDS011;27925;41.874;12.526;2024-03-23T13:56:29;4.97;;;2.15;;
40537;SDS011;27925;41.874;12.526;2024-03-23T13:58:58;5.38;;;1.90;;
40537;SDS011;27925;41.874;12.526;2024-03-23T14:01:23;6.68;;;2.63;;
40537;SDS011;27925;41.874;12.526;2024-03-23T14:03:49;7.93;;;2.53;;
40537;SDS011;27925;41.874;12.526;2024-03-23T14:06:15;5.75;;;1.70;;
40537;SDS011;27925;41.874;12.526;2024-03-23T14:08:41;5.80;;;2.10;;
40537;SDS011;27925;41.874;12.526;2024-03-23T14:11:08;4.65;;;2.15;;
40537;SDS011;27925;41.874;12.526;2024-03-23T14:13:35;7.72;;;2.13;;
40537;SDS011;27925;41.874;12.526;2024-03-23T14:16:01;6.88;;;2.78;;
40537;SDS011;27925;41.874;12.526;2024-03-23T14:18:27;5.03;;;2.25;;
40537;SDS011;27925;41.874;12.526;2024-03-23T14:20:57;5.70;;;2.25;;
40537;SDS011;27925;41.874;12.526;2024-03-23T14:23:28;5.43;;;2.05;;
40537;SDS011;27925;41.874;12.526;2024-03-23T14:25:54;7.88;;;2.80;;
40537;SDS011;27925;41.874;12.526;2024-03-23T14:28:21;5.60;;;1.92;;
40537;SDS011;27925;41.874;12.526;2024-03-23T14:30:48;7.60;;;3.38;;
40537;SDS011;27925;41.874;12.526;2024-03-23T14:33:14;3.95;;;1.92;;
40537;SDS011;27925;41.874;12.526;2024-03-23T14:35:41;5.10;;;2.55;;
40537;SDS011;27925;41.874;12.526;2024-03-23T14:38:06;5.43;;;2.40;;
40537;SDS011;27925;41.874;12.526;2024-03-23T14:40:32;5.30;;;2.90;;
40537;SDS011;27925;41.874;12.526;2024-03-23T14:42:58;6.85;;;2.55;;
40537;SDS011;27925;41.874;12.526;2024-03-23T14:45:24;5.30;;;2.00;;
40537;SDS011;27925;41.874;12.526;2024-03-23T14:47:50;8.43;;;2.60;;
40537;SDS011;27925;41.874;12.526;2024-03-23T14:50:16;5.63;;;2.53;;
40537;SDS011;27925;41.874;12.526;2024-03-23T14:52:45;7.32;;;2.95;;
40537;SDS011;27925;41.874;12.526;2024-03-23T14:55:11;5.25;;;2.50;;
40537;SDS011;27925;41.874;12.526;2024-03-23T14:57:38;6.70;;;2.30;;
40537;SDS011;27925;41.874;12.526;2024-03-23T15:00:07;6.78;;;2.15;;
40537;SDS011;27925;41.874;12.526;2024-03-23T15:02:35;5.90;;;2.35;;
40537;SDS011;27925;41.874;12.526;2024-03-23T15:05:04;5.45;;;2.05;;
40537;SDS011;27925;41.874;12.526;2024-03-23T15:07:34;5.47;;;2.55;;
40537;SDS011;27925;41.874;12.526;2024-03-23T15:10:01;6.25;;;2.95;;
40537;SDS011;27925;41.874;12.526;2024-03-23T15:12:26;7.28;;;2.55;;
40537;SDS011;27925;41.874;12.526;2024-03-23T15:14:52;8.40;;;2.72;;
40537;SDS011;27925;41.874;12.526;2024-03-23T15:17:18;7.78;;;2.50;;
40537;SDS011;27925;41.874;12.526;2024-03-23T15:19:43;8.27;;;2.33;;
40537;SDS011;27925;41.874;12.526;2024-03-23T15:22:09;7.35;;;2.10;;
40537;SDS011;27925;41.874;12.526;2024-03-23T15:24:35;5.95;;;2.95;;
40537;SDS011;27925;41.874;12.526;2024-03-23T15:27:02;6.47;;;2.60;;